F/V Berriz Patxiku — ECES — position and weather

sailwx.info

Track history (hours):
 
Tides and Currents Weather Stations Pressure Air Temp Water Temp Dewpoint Dewpoint Depression Visibility Wind Speed Wind Dir Waves Ship Positions

F/V Berriz Patxiku

Last reported at 2014-Oct-24 08:33 UTC. Time now 2014-Oct-24 08:40 UTC.
Position N 43°34' W 001°53'.

Length 30 m.

Type: Fishing. MMSI: 224106260.

Date/timePositionNaut miles runAvg speedWind from/ knotsBaromVisibWave heightAir tempDewpointWater temp
2014-Oct-24 08:33N 43°34' W 001°53'1010.1
2014-Oct-24 07:33N 43°41' W 001°44'6 6.0
2014-Oct-24 06:33N 43°46' W 001°39'0 0.4
2014-Oct-24 05:29N 43°46' W 001°38'10 0.5
2014-Oct-23 09:05N 43°43' W 001°50'27 5.8
2014-Oct-23 04:29N 44°06' W 001°32'24 1.2
2014-Oct-22 08:19N 43°45' W 001°48'42 1.2
2014-Oct-20 22:33N 44°25' W 001°31'9 9.0
2014-Oct-20 21:33N 44°34' W 001°31'6 6.0
2014-Oct-20 20:33N 44°28' W 001°34'36 9.0
2014-Oct-20 16:33N 43°53' W 001°43'10 9.6
2014-Oct-20 15:33N 43°45' W 001°50'10 9.4
2014-Oct-20 14:33N 43°36' W 001°56'12 9.8
2014-Oct-20 13:19N 43°26' W 002°05'9 8.9
2014-Oct-20 12:17N 43°18' W 002°12'  
2014-Oct-16 10:07N 44°16' W 001°51'610.5
2014-Oct-16 09:33N 44°22' W 001°49'1110.8
2014-Oct-16 08:34N 44°33' W 001°45'1110.7
2014-Oct-16 07:33N 44°43' W 001°42'1010.0
2014-Oct-16 06:32N 44°53' W 001°38'20 9.6
2014-Oct-16 04:28N 45°12' W 001°31'3 1.1
2014-Oct-16 01:17N 45°09' W 001°31'3 0.8
2014-Oct-15 22:04N 45°06' W 001°30'13 3.8
2014-Oct-15 18:33N 44°53' W 001°33'10 9.9
2014-Oct-15 17:34N 44°43' W 001°35'9 8.8
2014-Oct-15 16:33N 44°35' W 001°38'9 8.9
2014-Oct-15 15:33N 44°26' W 001°42'40 1.5
2014-Oct-14 13:18N 43°49' W 002°00'2310.7
2014-Oct-14 11:09N 44°11' W 001°52'6 9.9
2014-Oct-14 10:33N 44°17' W 001°50'1010.4
2014-Oct-14 09:34N 44°27' W 001°46'  
Track history (hours):
 
Tides and Currents Weather Stations Pressure Air Temp Water Temp Dewpoint Dewpoint Depression Visibility Wind Speed Wind Dir Waves Ship Positions

F/V Berriz Patxiku

Last reported at 2014-Oct-24 08:33 UTC. Time now 2014-Oct-24 08:40 UTC.
Position N 43°34' W 001°53'.

Length 30 m.

Type: Fishing. MMSI: 224106260.

Date/timePositionNaut miles runAvg speedWind from/ knotsBaromVisibWave heightAir tempDewpointWater temp
2014-Oct-24 08:33N 43°34' W 001°53'1010.1
2014-Oct-24 07:33N 43°41' W 001°44'6 6.0
2014-Oct-24 06:33N 43°46' W 001°39'0 0.4
2014-Oct-24 05:29N 43°46' W 001°38'10 0.5
2014-Oct-23 09:05N 43°43' W 001°50'27 5.8
2014-Oct-23 04:29N 44°06' W 001°32'24 1.2
2014-Oct-22 08:19N 43°45' W 001°48'42 1.2
2014-Oct-20 22:33N 44°25' W 001°31'9 9.0
2014-Oct-20 21:33N 44°34' W 001°31'6 6.0
2014-Oct-20 20:33N 44°28' W 001°34'36 9.0
2014-Oct-20 16:33N 43°53' W 001°43'10 9.6
2014-Oct-20 15:33N 43°45' W 001°50'10 9.4
2014-Oct-20 14:33N 43°36' W 001°56'12 9.8
2014-Oct-20 13:19N 43°26' W 002°05'9 8.9
2014-Oct-20 12:17N 43°18' W 002°12'  
2014-Oct-16 10:07N 44°16' W 001°51'610.5
2014-Oct-16 09:33N 44°22' W 001°49'1110.8
2014-Oct-16 08:34N 44°33' W 001°45'1110.7
2014-Oct-16 07:33N 44°43' W 001°42'1010.0
2014-Oct-16 06:32N 44°53' W 001°38'20 9.6
2014-Oct-16 04:28N 45°12' W 001°31'3 1.1
2014-Oct-16 01:17N 45°09' W 001°31'3 0.8
2014-Oct-15 22:04N 45°06' W 001°30'13 3.8
2014-Oct-15 18:33N 44°53' W 001°33'10 9.9
2014-Oct-15 17:34N 44°43' W 001°35'9 8.8
2014-Oct-15 16:33N 44°35' W 001°38'9 8.9
2014-Oct-15 15:33N 44°26' W 001°42'40 1.5
2014-Oct-14 13:18N 43°49' W 002°00'2310.7
2014-Oct-14 11:09N 44°11' W 001°52'6 9.9
2014-Oct-14 10:33N 44°17' W 001°50'1010.4
2014-Oct-14 09:34N 44°27' W 001°46'  

Dump ship's entire track history